createdAt,value
2019-03-29T11:08:33.393Z,29.10
2019-03-29T11:11:07.841Z,30.80
2019-03-29T11:13:42.374Z,30.20
2019-03-29T11:16:16.822Z,30.00
2019-03-29T11:18:51.304Z,29.50
2019-03-29T11:21:25.795Z,31.00
2019-03-29T11:24:00.743Z,29.00
2019-03-29T11:26:35.179Z,29.50
2019-03-29T11:29:09.655Z,30.20
2019-03-29T11:31:44.092Z,29.50
2019-03-29T11:34:21.075Z,29.60
2019-03-29T11:36:55.846Z,29.90
2019-03-29T11:39:30.310Z,29.60
2019-03-29T11:42:06.395Z,28.90
2019-03-29T11:44:42.503Z,28.70
2019-03-29T11:47:21.519Z,29.70
2019-03-29T11:49:55.991Z,29.60
2019-03-29T11:52:33.648Z,28.70
2019-03-29T11:55:07.687Z,29.20
2019-03-29T11:57:42.124Z,29.10
2019-03-29T12:00:19.855Z,29.00
2019-03-29T12:02:55.457Z,29.20
2019-03-29T12:05:29.889Z,28.80
2019-03-29T12:08:04.724Z,28.20
2019-03-29T12:10:39.208Z,28.50
2019-03-29T12:13:13.625Z,29.00
2019-03-29T12:15:48.164Z,29.20
2019-03-29T12:18:25.466Z,28.40
2019-03-29T12:20:59.956Z,29.20
2019-03-29T12:23:34.404Z,28.80
2019-03-29T12:26:08.935Z,28.60
2019-03-29T12:28:43.380Z,28.10
2019-03-29T12:31:17.846Z,29.20
2019-03-29T12:33:52.287Z,29.10
2019-03-29T12:36:26.761Z,29.10
2019-03-29T12:39:01.852Z,28.40
2019-03-29T12:41:36.388Z,29.20
2019-03-29T12:44:10.828Z,28.50
2019-03-29T12:46:45.308Z,28.60
2019-03-29T12:49:39.170Z,29.20
2019-03-29T12:52:13.642Z,28.90
2019-03-29T12:54:48.101Z,28.30
2019-03-29T12:57:22.548Z,27.80
2019-03-29T12:59:56.988Z,29.10
2019-03-29T13:02:34.352Z,29.30
2019-03-29T13:05:07.787Z,30.00
2019-03-29T13:07:42.332Z,29.40
2019-03-29T13:10:16.854Z,29.20
2019-03-29T13:12:52.535Z,29.90
2019-03-29T13:15:27.039Z,29.50
2019-03-29T13:18:01.509Z,29.80
2019-03-29T13:20:35.934Z,29.70
2019-03-29T13:23:10.413Z,29.90
2019-03-29T13:25:44.850Z,30.00
2019-03-29T13:28:19.756Z,30.20
2019-03-29T13:30:55.268Z,30.00
2019-03-29T13:33:29.766Z,29.60
2019-03-29T13:36:04.207Z,30.20
2019-03-29T13:38:38.860Z,31.00
2019-03-29T13:41:13.260Z,30.60
2019-03-29T13:43:47.737Z,30.80
2019-03-29T13:46:22.167Z,31.00
2019-03-29T13:48:56.644Z,31.50
2019-03-29T13:51:31.084Z,31.80
2019-03-29T13:54:05.550Z,32.40
2019-03-29T13:56:39.978Z,31.80
2019-03-29T13:59:14.450Z,31.80
2019-03-29T14:01:48.890Z,31.80
2019-03-29T14:04:23.353Z,32.30
2019-03-29T14:07:00.000Z,31.80
2019-03-29T14:09:34.467Z,31.60
2019-03-29T14:12:08.911Z,31.40
2019-03-29T14:14:43.385Z,31.30
2019-03-29T14:17:20.652Z,31.10
2019-03-29T14:19:55.107Z,31.70
2019-03-29T14:22:29.553Z,31.10
2019-03-29T14:25:06.639Z,31.20
2019-03-29T14:27:41.740Z,31.80
2019-03-29T14:30:16.213Z,31.40
2019-03-29T14:32:51.826Z,31.50
2019-03-29T14:35:26.306Z,32.50
2019-03-29T14:38:02.850Z,32.30
2019-03-29T14:40:38.083Z,32.10
2019-03-29T14:43:13.684Z,31.80
2019-03-29T14:45:48.152Z,32.20
2019-03-29T14:48:22.591Z,32.80
2019-03-29T14:50:57.064Z,32.30
2019-03-29T14:53:31.507Z,32.40
2019-03-29T14:56:05.975Z,32.50
2019-03-29T14:58:40.418Z,32.90
2019-03-29T15:01:15.138Z,32.80
2019-03-29T15:03:49.584Z,33.10
2019-03-29T15:06:24.094Z,33.20
2019-03-29T15:08:58.526Z,33.10
2019-03-29T15:11:33.019Z,33.50
2019-03-29T15:14:07.470Z,33.90
2019-03-29T15:16:42.811Z,33.50
2019-03-29T15:19:17.331Z,33.90
2019-03-29T15:21:51.798Z,34.00
2019-03-29T15:24:26.235Z,33.90
2019-03-29T15:27:00.717Z,34.10
2019-03-29T15:29:35.165Z,34.40
2019-03-29T15:32:09.752Z,34.10
2019-03-29T15:34:45.178Z,33.80
2019-03-29T15:37:19.652Z,34.10
2019-03-29T15:39:54.113Z,33.70
2019-03-29T15:42:28.576Z,33.50
2019-03-29T15:45:03.455Z,33.60
2019-03-29T15:47:40.210Z,33.60
2019-03-29T15:50:14.012Z,34.20
2019-03-29T15:52:48.487Z,34.70
2019-03-29T15:55:22.923Z,34.80
2019-03-29T15:57:57.403Z,34.80
2019-03-29T16:00:31.812Z,34.90
2019-03-29T16:03:06.256Z,35.20
2019-03-29T16:05:40.706Z,35.30
2019-03-29T16:08:15.200Z,35.20
2019-03-29T16:10:49.643Z,35.20
2019-03-29T16:13:24.130Z,35.40
2019-03-29T16:15:58.573Z,35.60
2019-03-29T16:18:35.469Z,35.90
2019-03-29T16:21:09.924Z,35.80
2019-03-29T16:23:44.401Z,35.90
2019-03-29T16:26:18.842Z,35.30
2019-03-29T16:28:53.895Z,36.00
2019-03-29T16:31:28.356Z,36.30
2019-03-29T16:34:02.860Z,36.20
2019-03-29T16:36:37.316Z,36.50
2019-03-29T16:39:11.799Z,37.10
2019-03-29T16:41:46.886Z,36.80
2019-03-29T16:44:21.332Z,37.00
2019-03-29T16:46:55.776Z,37.00
2019-03-29T16:49:30.833Z,37.20
2019-03-29T16:52:05.274Z,37.50
2019-03-29T16:54:39.760Z,37.40
2019-03-29T16:57:16.669Z,37.70
2019-03-29T16:59:50.398Z,38.00
2019-03-29T17:02:24.830Z,38.40
2019-03-29T17:04:59.315Z,38.60
2019-03-29T17:07:33.778Z,38.90
2019-03-29T17:10:08.845Z,39.00
2019-03-29T17:12:43.298Z,39.70
2019-03-29T17:15:17.779Z,39.80
2019-03-29T17:17:52.231Z,40.00
2019-03-29T17:20:27.378Z,40.30
2019-03-29T17:23:01.903Z,40.70
2019-03-29T17:25:36.393Z,40.80
2019-03-29T17:28:10.846Z,41.00
2019-03-29T17:30:46.971Z,41.20
2019-03-29T17:33:24.677Z,41.30
2019-03-29T17:36:00.818Z,41.60
2019-03-29T17:38:36.888Z,41.50
2019-03-29T17:41:11.628Z,41.60
2019-03-29T17:43:46.086Z,41.60
2019-03-29T17:46:20.664Z,41.60
2019-03-29T17:48:55.086Z,41.60
2019-03-29T17:51:29.571Z,41.80
2019-03-29T17:54:04.013Z,42.00
2019-03-29T17:56:38.489Z,42.40
2019-03-29T17:59:12.930Z,42.50
2019-03-29T18:01:48.470Z,42.60
2019-03-29T18:04:22.923Z,42.80
2019-03-29T18:06:57.398Z,43.00
2019-03-29T18:09:34.508Z,42.90
2019-03-29T18:12:11.481Z,42.90
2019-03-29T18:14:46.146Z,43.10
2019-03-29T18:17:23.130Z,43.10
2019-03-29T18:19:58.643Z,43.40
2019-03-29T18:22:33.286Z,43.50
2019-03-29T18:25:07.798Z,43.60
2019-03-29T18:27:42.306Z,43.90
2019-03-29T18:30:16.825Z,44.00
2019-03-29T18:32:52.954Z,44.30
2019-03-29T18:35:27.405Z,44.60
2019-03-29T18:38:01.925Z,44.80
2019-03-29T18:40:36.379Z,45.30
2019-03-29T18:43:10.876Z,45.40
2019-03-29T18:45:46.402Z,45.50
2019-03-29T18:48:20.842Z,45.70
2019-03-29T18:50:55.264Z,46.40
2019-03-29T18:53:29.748Z,45.80
2019-03-29T18:56:04.189Z,45.80
2019-03-29T18:58:38.663Z,45.80
2019-03-29T19:01:13.066Z,45.90
2019-03-29T19:03:47.899Z,46.00
2019-03-29T19:06:23.038Z,45.80
2019-03-29T19:08:59.281Z,46.00
2019-03-29T19:11:35.823Z,45.90
2019-03-29T19:14:11.778Z,45.90
2019-03-29T19:16:58.372Z,46.10
2019-03-29T19:19:23.629Z,46.20
2019-03-29T19:21:58.195Z,46.30
2019-03-29T19:24:34.079Z,46.10
2019-03-29T19:27:10.335Z,46.30
2019-03-29T19:29:45.503Z,46.50
2019-03-29T19:32:20.214Z,46.50
2019-03-29T19:34:54.863Z,46.60
2019-03-29T19:37:29.380Z,46.90
2019-03-29T19:40:05.987Z,47.10
2019-03-29T19:42:40.562Z,47.10
2019-03-29T19:45:15.780Z,47.10
2019-03-29T19:47:50.292Z,47.30
2019-03-29T19:50:24.767Z,47.50
2019-03-29T19:52:59.250Z,47.60
2019-03-29T19:55:33.766Z,47.70
2019-03-29T19:58:08.200Z,47.90
2019-03-29T20:00:42.702Z,48.10
2019-03-29T20:03:17.104Z,48.30
2019-03-29T20:05:54.381Z,48.40
2019-03-29T20:08:28.888Z,48.50
2019-03-29T20:11:03.705Z,48.50
2019-03-29T20:13:38.212Z,48.50
2019-03-29T20:16:15.721Z,48.70
2019-03-29T20:18:50.154Z,48.70
2019-03-29T20:21:24.629Z,48.90
2019-03-29T20:23:59.068Z,48.90
2019-03-29T20:26:34.212Z,49.20
2019-03-29T20:29:09.319Z,49.10
2019-03-29T20:31:44.465Z,49.40
2019-03-29T20:34:18.910Z,49.50
2019-03-29T20:36:53.391Z,49.70
2019-03-29T20:39:29.465Z,49.80
2019-03-29T20:42:05.582Z,50.20
2019-03-29T20:44:41.719Z,50.30
2019-03-29T20:47:16.185Z,50.50
2019-03-29T20:49:52.254Z,50.70
2019-03-29T20:52:28.022Z,50.80
2019-03-29T20:55:02.462Z,50.80
2019-03-29T20:57:36.931Z,51.00
2019-03-29T21:00:12.501Z,51.20
2019-03-29T21:02:46.930Z,51.40
2019-03-29T21:05:21.424Z,51.50
2019-03-29T21:07:55.980Z,51.40
2019-03-29T21:10:30.483Z,51.40
2019-03-29T21:13:07.070Z,51.50
2019-03-29T21:15:42.853Z,51.40
2019-03-29T21:18:17.932Z,51.40
2019-03-29T21:20:52.951Z,51.60
2019-03-29T21:23:27.424Z,51.50
2019-03-29T21:26:01.859Z,51.70
2019-03-29T21:28:36.339Z,51.70
2019-03-29T21:31:10.861Z,51.40
2019-03-29T21:33:45.328Z,51.90
2019-03-29T21:36:19.776Z,51.70
2019-03-29T21:38:54.242Z,51.80
2019-03-29T21:41:28.744Z,51.80
2019-03-29T21:44:03.585Z,51.90
2019-03-29T21:46:38.498Z,52.00
2019-03-29T21:49:12.978Z,52.20
2019-03-29T21:51:47.411Z,52.70
2019-03-29T21:54:22.256Z,52.10
2019-03-29T21:56:56.864Z,52.30
2019-03-29T21:59:31.606Z,52.40
2019-03-29T22:02:06.059Z,52.70
2019-03-29T22:04:42.155Z,52.70
2019-03-29T22:07:16.597Z,52.90
2019-03-29T22:09:51.245Z,53.10
2019-03-29T22:12:26.151Z,53.00
2019-03-29T22:15:00.637Z,53.10
2019-03-29T22:17:35.062Z,53.20
2019-03-29T22:20:10.883Z,53.10
2019-03-29T22:22:45.394Z,53.00
2019-03-29T22:25:20.008Z,53.20
2019-03-29T22:27:54.439Z,53.00
2019-03-29T22:30:28.907Z,53.00
2019-03-29T22:33:04.107Z,53.10
2019-03-29T22:35:38.723Z,53.00
2019-03-29T22:38:13.174Z,53.10
2019-03-29T22:40:47.853Z,53.60
2019-03-29T22:43:22.284Z,53.40
2019-03-29T22:45:58.423Z,54.20
2019-03-29T22:48:32.935Z,53.80
2019-03-29T22:51:07.404Z,53.80
2019-03-29T22:53:42.920Z,53.80
2019-03-29T22:56:18.458Z,53.70
2019-03-29T22:58:52.902Z,53.70
2019-03-29T23:01:27.374Z,53.70
2019-03-29T23:04:03.607Z,53.70
2019-03-29T23:06:37.934Z,53.90
2019-03-29T23:09:12.647Z,53.90
2019-03-29T23:11:47.555Z,53.80
2019-03-29T23:14:22.076Z,53.80
2019-03-29T23:16:57.228Z,53.90
2019-03-29T23:19:31.671Z,54.00
2019-03-29T23:22:06.154Z,54.20
2019-03-29T23:24:40.597Z,54.20
2019-03-29T23:27:15.067Z,54.20
2019-03-29T23:29:49.507Z,54.30
2019-03-29T23:32:23.975Z,54.50
2019-03-29T23:34:58.417Z,54.30
2019-03-29T23:37:34.533Z,54.60
2019-03-29T23:40:10.605Z,54.60
2019-03-29T23:42:46.724Z,54.70
2019-03-29T23:45:21.161Z,54.80
2019-03-29T23:47:55.640Z,54.70
2019-03-29T23:50:30.080Z,54.70
2019-03-29T23:53:04.554Z,54.90
2019-03-29T23:55:38.997Z,54.90
2019-03-29T23:58:13.479Z,54.80
